sensor_id;sensor_type;location;lat;lon;timestamp;temperature;humidity
43627;DHT22;29217;52.586;13.442;2022-10-16T00:00:39;14.60;99.90
43627;DHT22;29217;52.586;13.442;2022-10-16T00:03:05;14.60;99.90
43627;DHT22;29217;52.586;13.442;2022-10-16T00:05:31;14.60;99.90
43627;DHT22;29217;52.586;13.442;2022-10-16T00:07:57;14.60;99.90
43627;DHT22;29217;52.586;13.442;2022-10-16T00:10:23;14.70;99.90
43627;DHT22;29217;52.586;13.442;2022-10-16T00:12:48;14.80;99.90
43627;DHT22;29217;52.586;13.442;2022-10-16T00:15:14;14.80;99.90
43627;DHT22;29217;52.586;13.442;2022-10-16T00:17:40;14.90;99.90
43627;DHT22;29217;52.586;13.442;2022-10-16T00:20:06;15.00;99.90
43627;DHT22;29217;52.586;13.442;2022-10-16T00:22:32;15.00;99.90
43627;DHT22;29217;52.586;13.442;2022-10-16T00:24:57;15.10;99.90
43627;DHT22;29217;52.586;13.442;2022-10-16T00:27:23;15.10;99.90
43627;DHT22;29217;52.586;13.442;2022-10-16T00:29:52;15.20;99.90
43627;DHT22;29217;52.586;13.442;2022-10-16T00:32:19;15.20;99.90
43627;DHT22;29217;52.586;13.442;2022-10-16T00:34:45;15.20;99.90
43627;DHT22;29217;52.586;13.442;2022-10-16T00:37:12;15.20;99.90
43627;DHT22;29217;52.586;13.442;2022-10-16T00:39:37;15.20;99.90
43627;DHT22;29217;52.586;13.442;2022-10-16T00:42:03;15.20;99.90
43627;DHT22;29217;52.586;13.442;2022-10-16T00:44:53;15.30;99.90
43627;DHT22;29217;52.586;13.442;2022-10-16T00:50:10;15.30;99.90
43627;DHT22;29217;52.586;13.442;2022-10-16T00:52:39;15.30;99.90
43627;DHT22;29217;52.586;13.442;2022-10-16T00:55:07;15.40;99.90
43627;DHT22;29217;52.586;13.442;2022-10-16T00:57:35;15.40;99.90
43627;DHT22;29217;52.586;13.442;2022-10-16T01:00:02;15.40;99.90
43627;DHT22;29217;52.586;13.442;2022-10-16T01:02:28;15.40;99.90
43627;DHT22;29217;52.586;13.442;2022-10-16T01:04:54;15.40;99.90
43627;DHT22;29217;52.586;13.442;2022-10-16T01:07:24;15.40;99.90
43627;DHT22;29217;52.586;13.442;2022-10-16T01:09:56;15.40;99.90
43627;DHT22;29217;52.586;13.442;2022-10-16T01:13:07;15.40;99.90
43627;DHT22;29217;52.586;13.442;2022-10-16T01:18:38;15.40;99.90
43627;DHT22;29217;52.586;13.442;2022-10-16T01:21:29;15.40;99.90
43627;DHT22;29217;52.586;13.442;2022-10-16T01:27:15;15.40;99.90
43627;DHT22;29217;52.586;13.442;2022-10-16T01:32:38;15.40;99.90
43627;DHT22;29217;52.586;13.442;2022-10-16T01:35:11;15.40;99.90
43627;DHT22;29217;52.586;13.442;2022-10-16T01:38:21;15.40;99.90
43627;DHT22;29217;52.586;13.442;2022-10-16T01:40:55;15.50;99.90
43627;DHT22;29217;52.586;13.442;2022-10-16T01:43:39;15.40;99.90
43627;DHT22;29217;52.586;13.442;2022-10-16T01:46:06;15.50;99.90
43627;DHT22;29217;52.586;13.442;2022-10-16T01:48:34;15.50;99.90
43627;DHT22;29217;52.586;13.442;2022-10-16T01:51:07;15.40;99.90
43627;DHT22;29217;52.586;13.442;2022-10-16T01:53:34;15.40;99.90
43627;DHT22;29217;52.586;13.442;2022-10-16T01:56:02;15.40;99.90
43627;DHT22;29217;52.586;13.442;2022-10-16T01:58:30;15.40;99.90
43627;DHT22;29217;52.586;13.442;2022-10-16T02:01:00;15.40;99.90
43627;DHT22;29217;52.586;13.442;2022-10-16T02:03:27;15.40;99.90
43627;DHT22;29217;52.586;13.442;2022-10-16T02:05:55;15.40;99.90
43627;DHT22;29217;52.586;13.442;2022-10-16T02:08:24;15.40;99.90
43627;DHT22;29217;52.586;13.442;2022-10-16T02:10:51;15.40;99.90
43627;DHT22;29217;52.586;13.442;2022-10-16T02:13:21;15.40;99.90
43627;DHT22;29217;52.586;13.442;2022-10-16T02:15:47;15.40;99.90
43627;DHT22;29217;52.586;13.442;2022-10-16T02:18:13;15.40;99.90
43627;DHT22;29217;52.586;13.442;2022-10-16T02:20:51;15.40;99.90
43627;DHT22;29217;52.586;13.442;2022-10-16T02:23:27;15.40;99.90
43627;DHT22;29217;52.586;13.442;2022-10-16T02:25:54;15.40;99.90
43627;DHT22;29217;52.586;13.442;2022-10-16T02:28:27;15.40;99.90
43627;DHT22;29217;52.586;13.442;2022-10-16T02:30:58;15.40;99.90
43627;DHT22;29217;52.586;13.442;2022-10-16T02:33:25;15.50;99.90
43627;DHT22;29217;52.586;13.442;2022-10-16T02:35:53;15.50;99.90
43627;DHT22;29217;52.586;13.442;2022-10-16T02:38:20;15.40;99.90
43627;DHT22;29217;52.586;13.442;2022-10-16T02:40:46;15.40;99.90
43627;DHT22;29217;52.586;13.442;2022-10-16T02:43:12;15.40;99.90
43627;DHT22;29217;52.586;13.442;2022-10-16T02:45:38;15.40;99.90
43627;DHT22;29217;52.586;13.442;2022-10-16T02:48:04;15.40;99.90
43627;DHT22;29217;52.586;13.442;2022-10-16T02:50:30;15.40;99.90
43627;DHT22;29217;52.586;13.442;2022-10-16T02:52:55;15.40;99.90
43627;DHT22;29217;52.586;13.442;2022-10-16T02:55:21;15.40;99.90
43627;DHT22;29217;52.586;13.442;2022-10-16T02:57:46;15.40;99.90
43627;DHT22;29217;52.586;13.442;2022-10-16T03:00:14;15.40;99.90
43627;DHT22;29217;52.586;13.442;2022-10-16T03:02:40;15.30;99.90
43627;DHT22;29217;52.586;13.442;2022-10-16T03:05:06;15.30;99.90
43627;DHT22;29217;52.586;13.442;2022-10-16T03:07:31;15.30;99.90
43627;DHT22;29217;52.586;13.442;2022-10-16T03:09:57;15.30;99.90
43627;DHT22;29217;52.586;13.442;2022-10-16T03:12:28;15.30;99.90
43627;DHT22;29217;52.586;13.442;2022-10-16T03:14:54;15.20;99.90
43627;DHT22;29217;52.586;13.442;2022-10-16T03:17:20;15.20;99.90
43627;DHT22;29217;52.586;13.442;2022-10-16T03:19:46;15.20;99.90
43627;DHT22;29217;52.586;13.442;2022-10-16T03:22:11;15.10;99.90
43627;DHT22;29217;52.586;13.442;2022-10-16T03:24:37;15.10;99.90
43627;DHT22;29217;52.586;13.442;2022-10-16T03:27:02;15.00;99.90
43627;DHT22;29217;52.586;13.442;2022-10-16T03:29:28;15.00;99.90
43627;DHT22;29217;52.586;13.442;2022-10-16T03:31:55;14.90;99.90
43627;DHT22;29217;52.586;13.442;2022-10-16T03:34:21;14.90;99.90
43627;DHT22;29217;52.586;13.442;2022-10-16T03:36:46;14.90;99.90
43627;DHT22;29217;52.586;13.442;2022-10-16T03:39:12;14.80;99.90
43627;DHT22;29217;52.586;13.442;2022-10-16T03:41:38;14.80;99.90
43627;DHT22;29217;52.586;13.442;2022-10-16T03:44:03;14.70;99.90
43627;DHT22;29217;52.586;13.442;2022-10-16T03:46:29;14.70;99.90
43627;DHT22;29217;52.586;13.442;2022-10-16T03:48:55;14.60;99.90
43627;DHT22;29217;52.586;13.442;2022-10-16T03:51:20;14.60;99.90
43627;DHT22;29217;52.586;13.442;2022-10-16T03:53:46;14.50;99.90
43627;DHT22;29217;52.586;13.442;2022-10-16T03:56:11;14.50;99.90
43627;DHT22;29217;52.586;13.442;2022-10-16T03:58:37;14.50;99.90
43627;DHT22;29217;52.586;13.442;2022-10-16T04:01:02;14.50;99.90
43627;DHT22;29217;52.586;13.442;2022-10-16T04:03:28;14.50;99.90
43627;DHT22;29217;52.586;13.442;2022-10-16T04:05:53;14.50;99.90
43627;DHT22;29217;52.586;13.442;2022-10-16T04:08:19;14.50;99.90
43627;DHT22;29217;52.586;13.442;2022-10-16T04:10:45;14.50;99.90
43627;DHT22;29217;52.586;13.442;2022-10-16T04:13:11;14.50;99.90
43627;DHT22;29217;52.586;13.442;2022-10-16T04:15:36;14.50;99.90
43627;DHT22;29217;52.586;13.442;2022-10-16T04:18:02;14.50;99.90
43627;DHT22;29217;52.586;13.442;2022-10-16T04:20:28;14.50;99.90
43627;DHT22;29217;52.586;13.442;2022-10-16T04:22:53;14.40;99.90
43627;DHT22;29217;52.586;13.442;2022-10-16T04:25:19;14.50;99.90
43627;DHT22;29217;52.586;13.442;2022-10-16T04:27:44;14.50;99.90
43627;DHT22;29217;52.586;13.442;2022-10-16T04:30:10;14.50;99.90
43627;DHT22;29217;52.586;13.442;2022-10-16T04:32:36;14.50;99.90
43627;DHT22;29217;52.586;13.442;2022-10-16T04:35:01;14.50;99.90
43627;DHT22;29217;52.586;13.442;2022-10-16T04:37:28;14.50;99.90
43627;DHT22;29217;52.586;13.442;2022-10-16T04:39:54;14.50;99.90
43627;DHT22;29217;52.586;13.442;2022-10-16T04:42:20;14.50;99.90
43627;DHT22;29217;52.586;13.442;2022-10-16T04:44:46;14.50;99.90
43627;DHT22;29217;52.586;13.442;2022-10-16T04:47:11;14.50;99.90
43627;DHT22;29217;52.586;13.442;2022-10-16T04:49:37;14.40;99.90
43627;DHT22;29217;52.586;13.442;2022-10-16T04:52:03;14.50;99.90
43627;DHT22;29217;52.586;13.442;2022-10-16T04:54:28;14.40;99.90
43627;DHT22;29217;52.586;13.442;2022-10-16T04:56:54;14.40;99.90
43627;DHT22;29217;52.586;13.442;2022-10-16T04:59:20;14.40;99.90
43627;DHT22;29217;52.586;13.442;2022-10-16T05:01:45;14.40;99.90
43627;DHT22;29217;52.586;13.442;2022-10-16T05:04:11;14.30;99.90
43627;DHT22;29217;52.586;13.442;2022-10-16T05:06:37;14.20;99.90
43627;DHT22;29217;52.586;13.442;2022-10-16T05:09:07;14.20;99.90
43627;DHT22;29217;52.586;13.442;2022-10-16T05:11:33;14.00;99.90
43627;DHT22;29217;52.586;13.442;2022-10-16T05:13:58;14.00;99.90
43627;DHT22;29217;52.586;13.442;2022-10-16T05:16:24;13.90;99.90
43627;DHT22;29217;52.586;13.442;2022-10-16T05:18:51;13.90;99.90
43627;DHT22;29217;52.586;13.442;2022-10-16T05:21:16;13.90;99.90
43627;DHT22;29217;52.586;13.442;2022-10-16T05:23:42;13.90;99.90
43627;DHT22;29217;52.586;13.442;2022-10-16T05:26:07;13.90;99.90
43627;DHT22;29217;52.586;13.442;2022-10-16T05:28:33;13.90;99.90
43627;DHT22;29217;52.586;13.442;2022-10-16T05:30:58;13.80;99.90
43627;DHT22;29217;52.586;13.442;2022-10-16T05:33:25;13.80;99.90
43627;DHT22;29217;52.586;13.442;2022-10-16T05:35:51;13.90;99.90
43627;DHT22;29217;52.586;13.442;2022-10-16T05:38:17;13.90;99.90
43627;DHT22;29217;52.586;13.442;2022-10-16T05:40:44;13.90;99.90
43627;DHT22;29217;52.586;13.442;2022-10-16T05:43:15;13.80;99.90
43627;DHT22;29217;52.586;13.442;2022-10-16T05:45:40;13.90;99.90
43627;DHT22;29217;52.586;13.442;2022-10-16T05:48:06;13.80;99.90
43627;DHT22;29217;52.586;13.442;2022-10-16T05:50:31;13.80;99.90
43627;DHT22;29217;52.586;13.442;2022-10-16T05:52:57;13.90;99.90
43627;DHT22;29217;52.586;13.442;2022-10-16T05:55:23;13.90;99.90
43627;DHT22;29217;52.586;13.442;2022-10-16T05:57:48;13.90;99.90
43627;DHT22;29217;52.586;13.442;2022-10-16T06:00:14;14.00;99.90
43627;DHT22;29217;52.586;13.442;2022-10-16T06:02:39;14.00;99.90
43627;DHT22;29217;52.586;13.442;2022-10-16T06:05:05;14.00;99.90
43627;DHT22;29217;52.586;13.442;2022-10-16T06:07:34;14.10;99.90
43627;DHT22;29217;52.586;13.442;2022-10-16T06:10:01;14.10;99.90
43627;DHT22;29217;52.586;13.442;2022-10-16T06:12:26;14.10;99.90
43627;DHT22;29217;52.586;13.442;2022-10-16T06:14:52;14.10;99.90
43627;DHT22;29217;52.586;13.442;2022-10-16T06:17:17;14.20;99.90
43627;DHT22;29217;52.586;13.442;2022-10-16T06:19:43;14.20;99.90
43627;DHT22;29217;52.586;13.442;2022-10-16T06:22:09;14.20;99.90
43627;DHT22;29217;52.586;13.442;2022-10-16T06:24:34;14.30;99.90
43627;DHT22;29217;52.586;13.442;2022-10-16T06:27:00;14.40;99.90
43627;DHT22;29217;52.586;13.442;2022-10-16T06:29:25;14.40;99.90
43627;DHT22;29217;52.586;13.442;2022-10-16T06:31:51;14.50;99.90
43627;DHT22;29217;52.586;13.442;2022-10-16T06:34:18;14.50;99.90
43627;DHT22;29217;52.586;13.442;2022-10-16T06:36:43;14.50;99.90
43627;DHT22;29217;52.586;13.442;2022-10-16T06:39:09;14.50;99.90
43627;DHT22;29217;52.586;13.442;2022-10-16T06:41:35;14.60;99.90
43627;DHT22;29217;52.586;13.442;2022-10-16T06:44:00;14.60;99.90
43627;DHT22;29217;52.586;13.442;2022-10-16T06:46:27;14.70;99.90
43627;DHT22;29217;52.586;13.442;2022-10-16T06:48:53;14.70;99.90
43627;DHT22;29217;52.586;13.442;2022-10-16T06:51:20;14.70;99.90
43627;DHT22;29217;52.586;13.442;2022-10-16T06:53:51;14.70;99.90
43627;DHT22;29217;52.586;13.442;2022-10-16T06:56:19;14.80;99.90
43627;DHT22;29217;52.586;13.442;2022-10-16T06:58:45;14.90;99.90
43627;DHT22;29217;52.586;13.442;2022-10-16T07:01:13;14.90;99.90
43627;DHT22;29217;52.586;13.442;2022-10-16T07:03:42;14.90;99.90
43627;DHT22;29217;52.586;13.442;2022-10-16T07:06:10;14.90;99.90
43627;DHT22;29217;52.586;13.442;2022-10-16T07:08:38;15.00;99.90
43627;DHT22;29217;52.586;13.442;2022-10-16T07:11:09;15.00;99.90
43627;DHT22;29217;52.586;13.442;2022-10-16T07:13:40;15.10;99.90
43627;DHT22;29217;52.586;13.442;2022-10-16T07:16:14;15.10;99.90
43627;DHT22;29217;52.586;13.442;2022-10-16T07:18:41;15.10;99.90
43627;DHT22;29217;52.586;13.442;2022-10-16T07:21:10;15.20;99.90
43627;DHT22;29217;52.586;13.442;2022-10-16T07:23:36;15.20;99.90
43627;DHT22;29217;52.586;13.442;2022-10-16T07:26:02;15.30;99.90
43627;DHT22;29217;52.586;13.442;2022-10-16T07:28:28;15.30;99.90
43627;DHT22;29217;52.586;13.442;2022-10-16T07:30:54;15.30;99.90
43627;DHT22;29217;52.586;13.442;2022-10-16T07:33:20;15.40;99.90
43627;DHT22;29217;52.586;13.442;2022-10-16T07:35:54;15.50;99.90
43627;DHT22;29217;52.586;13.442;2022-10-16T07:38:21;15.50;99.90
43627;DHT22;29217;52.586;13.442;2022-10-16T07:40:46;15.60;99.90
43627;DHT22;29217;52.586;13.442;2022-10-16T07:43:13;15.60;99.90
43627;DHT22;29217;52.586;13.442;2022-10-16T07:45:47;15.70;99.90
43627;DHT22;29217;52.586;13.442;2022-10-16T07:48:12;15.70;99.90
43627;DHT22;29217;52.586;13.442;2022-10-16T07:50:38;15.80;99.90
43627;DHT22;29217;52.586;13.442;2022-10-16T07:53:04;15.80;99.90
43627;DHT22;29217;52.586;13.442;2022-10-16T07:55:29;15.90;99.90
43627;DHT22;29217;52.586;13.442;2022-10-16T07:57:55;15.90;99.90
43627;DHT22;29217;52.586;13.442;2022-10-16T08:00:20;15.90;99.90
43627;DHT22;29217;52.586;13.442;2022-10-16T08:02:46;16.00;99.90
43627;DHT22;29217;52.586;13.442;2022-10-16T08:05:11;16.00;99.90
43627;DHT22;29217;52.586;13.442;2022-10-16T08:07:37;16.00;99.90
43627;DHT22;29217;52.586;13.442;2022-10-16T08:10:02;16.00;99.90
43627;DHT22;29217;52.586;13.442;2022-10-16T08:12:28;16.00;99.90
43627;DHT22;29217;52.586;13.442;2022-10-16T08:14:53;16.00;99.90
43627;DHT22;29217;52.586;13.442;2022-10-16T08:17:19;16.00;99.90
43627;DHT22;29217;52.586;13.442;2022-10-16T08:19:45;16.00;99.90
43627;DHT22;29217;52.586;13.442;2022-10-16T08:22:11;16.10;99.90
43627;DHT22;29217;52.586;13.442;2022-10-16T08:24:37;16.20;99.90
43627;DHT22;29217;52.586;13.442;2022-10-16T08:27:02;16.20;99.90
43627;DHT22;29217;52.586;13.442;2022-10-16T08:29:29;16.20;99.90
43627;DHT22;29217;52.586;13.442;2022-10-16T08:31:54;16.30;99.90
43627;DHT22;29217;52.586;13.442;2022-10-16T08:34:20;16.30;99.90
43627;DHT22;29217;52.586;13.442;2022-10-16T08:36:46;16.30;99.90
43627;DHT22;29217;52.586;13.442;2022-10-16T08:39:11;16.40;99.90
43627;DHT22;29217;52.586;13.442;2022-10-16T08:47:18;16.40;99.90
43627;DHT22;29217;52.586;13.442;2022-10-16T08:52:19;16.60;99.90
43627;DHT22;29217;52.586;13.442;2022-10-16T08:54:48;16.60;99.90
43627;DHT22;29217;52.586;13.442;2022-10-16T08:57:22;16.70;99.90
43627;DHT22;29217;52.586;13.442;2022-10-16T08:59:47;16.70;99.90
43627;DHT22;29217;52.586;13.442;2022-10-16T09:02:32;16.70;99.90
43627;DHT22;29217;52.586;13.442;2022-10-16T09:10:59;17.00;99.90
43627;DHT22;29217;52.586;13.442;2022-10-16T09:16:31;17.20;99.90
43627;DHT22;29217;52.586;13.442;2022-10-16T09:21:39;17.40;99.90
43627;DHT22;29217;52.586;13.442;2022-10-16T09:24:14;17.40;99.90
43627;DHT22;29217;52.586;13.442;2022-10-16T09:26:40;17.40;99.90
43627;DHT22;29217;52.586;13.442;2022-10-16T09:29:06;17.50;99.90
43627;DHT22;29217;52.586;13.442;2022-10-16T09:31:31;17.60;99.90
43627;DHT22;29217;52.586;13.442;2022-10-16T09:34:02;17.50;99.90
43627;DHT22;29217;52.586;13.442;2022-10-16T09:36:39;17.60;99.90
43627;DHT22;29217;52.586;13.442;2022-10-16T09:39:08;17.60;99.90
43627;DHT22;29217;52.586;13.442;2022-10-16T09:41:38;17.70;99.90
43627;DHT22;29217;52.586;13.442;2022-10-16T09:46:44;17.70;99.90
43627;DHT22;29217;52.586;13.442;2022-10-16T09:49:26;17.80;99.90
43627;DHT22;29217;52.586;13.442;2022-10-16T09:52:11;17.90;99.90
43627;DHT22;29217;52.586;13.442;2022-10-16T09:54:37;17.90;99.90
43627;DHT22;29217;52.586;13.442;2022-10-16T09:57:13;17.90;99.90
43627;DHT22;29217;52.586;13.442;2022-10-16T09:59:47;17.90;99.90
43627;DHT22;29217;52.586;13.442;2022-10-16T10:02:14;18.00;99.90
43627;DHT22;29217;52.586;13.442;2022-10-16T10:04:44;18.00;99.90
43627;DHT22;29217;52.586;13.442;2022-10-16T10:07:25;18.30;99.90
43627;DHT22;29217;52.586;13.442;2022-10-16T10:09:52;18.40;99.90
43627;DHT22;29217;52.586;13.442;2022-10-16T10:12:27;18.60;99.90
43627;DHT22;29217;52.586;13.442;2022-10-16T10:14:55;18.60;99.90
43627;DHT22;29217;52.586;13.442;2022-10-16T10:17:26;18.50;99.90
43627;DHT22;29217;52.586;13.442;2022-10-16T10:19:58;18.30;99.90
43627;DHT22;29217;52.586;13.442;2022-10-16T10:22:42;18.30;99.90
43627;DHT22;29217;52.586;13.442;2022-10-16T10:25:15;18.20;99.90
43627;DHT22;29217;52.586;13.442;2022-10-16T10:27:56;18.30;99.90
43627;DHT22;29217;52.586;13.442;2022-10-16T10:39:15;18.00;99.90
43627;DHT22;29217;52.586;13.442;2022-10-16T10:44:26;18.10;99.90
43627;DHT22;29217;52.586;13.442;2022-10-16T10:47:31;18.20;99.90
43627;DHT22;29217;52.586;13.442;2022-10-16T10:50:22;18.30;99.90
43627;DHT22;29217;52.586;13.442;2022-10-16T10:53:15;18.30;99.90
43627;DHT22;29217;52.586;13.442;2022-10-16T10:59:02;18.60;99.90
43627;DHT22;29217;52.586;13.442;2022-10-16T11:02:02;18.90;99.90
43627;DHT22;29217;52.586;13.442;2022-10-16T11:04:34;19.00;99.90
43627;DHT22;29217;52.586;13.442;2022-10-16T11:07:08;19.00;99.90
43627;DHT22;29217;52.586;13.442;2022-10-16T11:09:42;19.10;99.90
43627;DHT22;29217;52.586;13.442;2022-10-16T11:12:29;19.10;99.90
43627;DHT22;29217;52.586;13.442;2022-10-16T11:17:52;19.00;99.90
43627;DHT22;29217;52.586;13.442;2022-10-16T11:20:32;18.90;99.90
43627;DHT22;29217;52.586;13.442;2022-10-16T11:23:16;18.90;99.90
43627;DHT22;29217;52.586;13.442;2022-10-16T11:25:43;18.90;99.90
43627;DHT22;29217;52.586;13.442;2022-10-16T11:28:25;18.90;99.90
43627;DHT22;29217;52.586;13.442;2022-10-16T11:31:04;18.90;99.90
43627;DHT22;29217;52.586;13.442;2022-10-16T11:36:31;18.90;99.90
43627;DHT22;29217;52.586;13.442;2022-10-16T11:39:21;18.90;99.90
43627;DHT22;29217;52.586;13.442;2022-10-16T11:41:51;18.90;99.90
43627;DHT22;29217;52.586;13.442;2022-10-16T11:47:26;19.10;99.90
43627;DHT22;29217;52.586;13.442;2022-10-16T11:49:59;19.40;99.90
43627;DHT22;29217;52.586;13.442;2022-10-16T11:52:36;19.50;99.90
43627;DHT22;29217;52.586;13.442;2022-10-16T11:57:40;21.10;99.90
43627;DHT22;29217;52.586;13.442;2022-10-16T12:00:28;21.70;99.90
43627;DHT22;29217;52.586;13.442;2022-10-16T12:05:50;22.10;99.90
43627;DHT22;29217;52.586;13.442;2022-10-16T12:08:18;22.20;99.90
43627;DHT22;29217;52.586;13.442;2022-10-16T12:10:46;21.90;99.90
43627;DHT22;29217;52.586;13.442;2022-10-16T12:18:39;23.00;99.90
43627;DHT22;29217;52.586;13.442;2022-10-16T12:21:06;23.20;99.90
43627;DHT22;29217;52.586;13.442;2022-10-16T12:26:27;23.00;99.90
43627;DHT22;29217;52.586;13.442;2022-10-16T12:28:54;22.80;99.90
43627;DHT22;29217;52.586;13.442;2022-10-16T12:31:20;22.60;99.90
43627;DHT22;29217;52.586;13.442;2022-10-16T12:34:01;22.50;99.90
43627;DHT22;29217;52.586;13.442;2022-10-16T12:36:30;22.50;99.90
43627;DHT22;29217;52.586;13.442;2022-10-16T12:38:56;22.20;99.90
43627;DHT22;29217;52.586;13.442;2022-10-16T12:41:34;22.10;99.90
43627;DHT22;29217;52.586;13.442;2022-10-16T12:44:01;22.30;99.90
43627;DHT22;29217;52.586;13.442;2022-10-16T12:54:03;21.80;99.90
43627;DHT22;29217;52.586;13.442;2022-10-16T12:59:15;21.70;99.90
43627;DHT22;29217;52.586;13.442;2022-10-16T13:02:04;21.60;99.90
43627;DHT22;29217;52.586;13.442;2022-10-16T13:07:43;21.20;99.90
43627;DHT22;29217;52.586;13.442;2022-10-16T13:15:28;21.20;99.90
43627;DHT22;29217;52.586;13.442;2022-10-16T13:18:16;21.10;99.90
43627;DHT22;29217;52.586;13.442;2022-10-16T13:24:14;20.90;99.90
43627;DHT22;29217;52.586;13.442;2022-10-16T13:29:19;21.00;99.90
43627;DHT22;29217;52.586;13.442;2022-10-16T13:31:45;21.00;99.90
43627;DHT22;29217;52.586;13.442;2022-10-16T13:34:18;20.90;99.90
43627;DHT22;29217;52.586;13.442;2022-10-16T13:36:50;20.80;99.90
43627;DHT22;29217;52.586;13.442;2022-10-16T13:39:20;20.80;99.90
43627;DHT22;29217;52.586;13.442;2022-10-16T13:41:57;20.80;99.90
43627;DHT22;29217;52.586;13.442;2022-10-16T13:44:23;20.60;99.90
43627;DHT22;29217;52.586;13.442;2022-10-16T13:46:58;20.60;99.90
43627;DHT22;29217;52.586;13.442;2022-10-16T13:49:24;20.60;99.90
43627;DHT22;29217;52.586;13.442;2022-10-16T13:51:57;20.70;99.90
43627;DHT22;29217;52.586;13.442;2022-10-16T13:54:24;20.40;99.90
43627;DHT22;29217;52.586;13.442;2022-10-16T13:56:50;20.40;99.90
43627;DHT22;29217;52.586;13.442;2022-10-16T13:59:25;20.40;99.90
43627;DHT22;29217;52.586;13.442;2022-10-16T14:01:53;20.40;99.90
43627;DHT22;29217;52.586;13.442;2022-10-16T14:04:21;20.30;99.90
43627;DHT22;29217;52.586;13.442;2022-10-16T14:06:49;20.20;99.90
43627;DHT22;29217;52.586;13.442;2022-10-16T14:09:29;20.20;99.90
43627;DHT22;29217;52.586;13.442;2022-10-16T14:12:07;20.30;99.90
43627;DHT22;29217;52.586;13.442;2022-10-16T14:14:40;20.20;99.90
43627;DHT22;29217;52.586;13.442;2022-10-16T14:17:06;20.20;99.90
43627;DHT22;29217;52.586;13.442;2022-10-16T14:19:38;20.20;99.90
43627;DHT22;29217;52.586;13.442;2022-10-16T14:22:29;20.20;99.90
43627;DHT22;29217;52.586;13.442;2022-10-16T14:24:55;20.20;99.90
43627;DHT22;29217;52.586;13.442;2022-10-16T14:27:35;20.20;99.90
43627;DHT22;29217;52.586;13.442;2022-10-16T14:30:15;20.30;99.90
43627;DHT22;29217;52.586;13.442;2022-10-16T14:32:52;20.30;99.90
43627;DHT22;29217;52.586;13.442;2022-10-16T14:35:25;20.20;99.90
43627;DHT22;29217;52.586;13.442;2022-10-16T14:37:52;20.20;99.90
43627;DHT22;29217;52.586;13.442;2022-10-16T14:40:18;20.30;99.90
43627;DHT22;29217;52.586;13.442;2022-10-16T14:42:44;20.30;99.90
43627;DHT22;29217;52.586;13.442;2022-10-16T14:45:10;20.30;99.90
43627;DHT22;29217;52.586;13.442;2022-10-16T14:47:44;20.20;99.90
43627;DHT22;29217;52.586;13.442;2022-10-16T14:50:13;20.20;99.90
43627;DHT22;29217;52.586;13.442;2022-10-16T14:52:38;20.20;99.90
43627;DHT22;29217;52.586;13.442;2022-10-16T14:55:05;20.20;99.90
43627;DHT22;29217;52.586;13.442;2022-10-16T14:57:33;20.20;99.90
43627;DHT22;29217;52.586;13.442;2022-10-16T15:00:01;20.20;99.90
43627;DHT22;29217;52.586;13.442;2022-10-16T15:02:30;20.30;99.90
43627;DHT22;29217;52.586;13.442;2022-10-16T15:04:56;20.30;99.90
43627;DHT22;29217;52.586;13.442;2022-10-16T15:07:23;20.30;99.90
43627;DHT22;29217;52.586;13.442;2022-10-16T15:09:49;20.30;99.90
43627;DHT22;29217;52.586;13.442;2022-10-16T15:12:14;20.30;99.90
43627;DHT22;29217;52.586;13.442;2022-10-16T15:14:40;20.30;99.90
43627;DHT22;29217;52.586;13.442;2022-10-16T15:17:07;20.30;99.90
43627;DHT22;29217;52.586;13.442;2022-10-16T15:19:33;20.20;99.90
43627;DHT22;29217;52.586;13.442;2022-10-16T15:21:59;20.10;99.90
43627;DHT22;29217;52.586;13.442;2022-10-16T15:24:25;20.10;99.90
43627;DHT22;29217;52.586;13.442;2022-10-16T15:26:50;20.10;99.90
43627;DHT22;29217;52.586;13.442;2022-10-16T15:29:16;20.00;99.90
43627;DHT22;29217;52.586;13.442;2022-10-16T15:31:41;20.00;99.90
43627;DHT22;29217;52.586;13.442;2022-10-16T15:34:12;19.80;99.90
43627;DHT22;29217;52.586;13.442;2022-10-16T15:36:38;19.60;99.90
43627;DHT22;29217;52.586;13.442;2022-10-16T15:39:06;19.40;99.90
43627;DHT22;29217;52.586;13.442;2022-10-16T15:41:37;19.20;99.90
43627;DHT22;29217;52.586;13.442;2022-10-16T15:44:03;19.00;99.90
43627;DHT22;29217;52.586;13.442;2022-10-16T15:46:28;18.90;99.90
43627;DHT22;29217;52.586;13.442;2022-10-16T15:48:57;18.80;99.90
43627;DHT22;29217;52.586;13.442;2022-10-16T15:51:24;18.60;99.90
43627;DHT22;29217;52.586;13.442;2022-10-16T15:53:50;18.40;99.90
43627;DHT22;29217;52.586;13.442;2022-10-16T15:56:16;18.40;99.90
43627;DHT22;29217;52.586;13.442;2022-10-16T15:58:43;18.20;99.90
43627;DHT22;29217;52.586;13.442;2022-10-16T16:01:08;18.00;99.90
43627;DHT22;29217;52.586;13.442;2022-10-16T16:03:35;17.80;99.90
43627;DHT22;29217;52.586;13.442;2022-10-16T16:06:06;17.80;99.90
43627;DHT22;29217;52.586;13.442;2022-10-16T16:08:33;17.60;99.90
43627;DHT22;29217;52.586;13.442;2022-10-16T16:11:03;17.60;99.90
43627;DHT22;29217;52.586;13.442;2022-10-16T16:13:29;17.50;99.90
43627;DHT22;29217;52.586;13.442;2022-10-16T16:15:55;17.40;99.90
43627;DHT22;29217;52.586;13.442;2022-10-16T16:18:21;17.30;99.90
43627;DHT22;29217;52.586;13.442;2022-10-16T16:20:46;17.20;99.90
43627;DHT22;29217;52.586;13.442;2022-10-16T16:23:12;17.00;99.90
43627;DHT22;29217;52.586;13.442;2022-10-16T16:25:37;16.70;99.90
43627;DHT22;29217;52.586;13.442;2022-10-16T16:28:03;16.60;99.90
43627;DHT22;29217;52.586;13.442;2022-10-16T16:30:29;16.50;99.90
43627;DHT22;29217;52.586;13.442;2022-10-16T16:32:54;16.50;99.90
43627;DHT22;29217;52.586;13.442;2022-10-16T16:35:20;16.40;99.90
43627;DHT22;29217;52.586;13.442;2022-10-16T16:37:47;16.40;99.90
43627;DHT22;29217;52.586;13.442;2022-10-16T16:40:12;16.30;99.90
43627;DHT22;29217;52.586;13.442;2022-10-16T16:42:38;16.40;99.90
43627;DHT22;29217;52.586;13.442;2022-10-16T16:45:04;16.20;99.90
43627;DHT22;29217;52.586;13.442;2022-10-16T16:47:29;16.20;99.90
43627;DHT22;29217;52.586;13.442;2022-10-16T16:49:55;16.10;99.90
43627;DHT22;29217;52.586;13.442;2022-10-16T16:52:20;16.00;99.90
43627;DHT22;29217;52.586;13.442;2022-10-16T16:54:47;15.70;99.90
43627;DHT22;29217;52.586;13.442;2022-10-16T16:57:18;15.50;99.90
43627;DHT22;29217;52.586;13.442;2022-10-16T16:59:43;15.20;99.90
43627;DHT22;29217;52.586;13.442;2022-10-16T17:02:09;15.00;99.90